Time;durP1;ratioP1;P1;durP2;ratioP2;P2;SDS_P1;SDS_P2;PMS_P1;PMS_P2;Temp;Humidity;BMP_temperature;BMP_pressure;BME280_temperature;BME280_humidity;BME280_pressure;Samples;Min_cycle;Max_cycle;Signal;HPM_P1;HPM_P2
2022/12/29 00:01:33;;;;;;;4.43;3.05;;;10.20;99.90;;;;;;4919704;29;20043;-83
2022/12/29 00:04:02;;;;;;;3.80;3.42;;;10.20;99.90;;;;;;4925136;29;20126;-83
2022/12/29 00:06:28;;;;;;;3.90;3.47;;;10.20;99.90;;;;;;4932048;29;20126;-85
2022/12/29 00:08:53;;;;;;;4.05;3.65;;;10.10;99.90;;;;;;4917518;29;20063;-83
2022/12/29 00:11:24;;;;;;;4.63;4.28;;;10.10;99.90;;;;;;4920248;29;20040;-83
2022/12/29 00:16:36;;;;;;;4.47;3.53;;;10.20;99.90;;;;;;4932922;29;20042;-84
2022/12/29 00:19:03;;;;;;;4.28;3.85;;;10.10;99.90;;;;;;4930463;29;20399;-83
2022/12/29 00:35:27;;;;;;;2.95;2.72;;;10.20;99.90;;;;;;4929948;29;20058;-84
2022/12/29 00:46:11;;;;;;;3.10;2.90;;;10.30;99.90;;;;;;4931548;29;20179;-84
2022/12/29 00:51:21;;;;;;;3.22;2.95;;;10.30;99.90;;;;;;4933683;29;20101;-84
2022/12/29 00:53:51;;;;;;;3.92;2.90;;;10.30;99.90;;;;;;4914183;29;20055;-84
2022/12/29 00:56:17;;;;;;;3.28;2.97;;;10.30;99.90;;;;;;4924416;29;20637;-85
2022/12/29 00:58:42;;;;;;;3.83;2.97;;;10.30;99.90;;;;;;4933823;29;20155;-84
2022/12/29 01:01:09;;;;;;;4.45;2.58;;;10.30;99.90;;;;;;4932969;29;20527;-84
2022/12/29 01:03:36;;;;;;;3.00;2.40;;;10.30;99.90;;;;;;4915321;29;20044;-84
2022/12/29 01:06:28;;;;;;;2.95;2.75;;;10.30;99.90;;;;;;4932750;29;20044;-84
2022/12/29 01:11:39;;;;;;;2.70;2.50;;;10.40;99.90;;;;;;4926655;29;20051;-83
2022/12/29 01:14:05;;;;;;;3.05;2.22;;;10.30;99.90;;;;;;4920221;29;20122;-84
2022/12/29 01:16:31;;;;;;;2.33;2.15;;;10.40;99.90;;;;;;4931572;29;20048;-84
2022/12/29 01:19:05;;;;;;;3.20;2.90;;;10.30;99.90;;;;;;4931988;29;20048;-85
2022/12/29 01:21:30;;;;;;;2.92;2.50;;;10.30;99.90;;;;;;4916563;29;20051;-84
2022/12/29 01:23:56;;;;;;;4.55;2.28;;;10.30;99.90;;;;;;4932449;29;20518;-84
2022/12/29 01:26:21;;;;;;;2.50;2.08;;;10.30;99.90;;;;;;4931563;29;20058;-84
2022/12/29 01:28:47;;;;;;;3.53;2.15;;;10.40;99.90;;;;;;4911801;29;20068;-84
2022/12/29 01:31:20;;;;;;;3.00;2.20;;;10.40;99.90;;;;;;4928389;29;20031;-85
2022/12/29 01:33:45;;;;;;;3.42;1.85;;;10.50;99.90;;;;;;4942108;29;20044;-83
2022/12/29 01:36:14;;;;;;;3.55;1.83;;;10.50;99.90;;;;;;4913292;29;20045;-83
2022/12/29 01:38:40;;;;;;;1.90;1.20;;;10.50;99.90;;;;;;4930039;29;20036;-84
2022/12/29 01:41:07;;;;;;;3.63;2.15;;;10.50;99.90;;;;;;4916634;29;20035;-84
2022/12/29 01:43:39;;;;;;;4.05;1.65;;;10.50;99.90;;;;;;4917149;29;20035;-84
2022/12/29 01:46:07;;;;;;;2.35;2.05;;;10.50;99.90;;;;;;4903139;29;20087;-83
2022/12/29 01:48:33;;;;;;;3.17;2.13;;;10.50;99.90;;;;;;4929377;29;20122;-83
2022/12/29 01:50:59;;;;;;;1.70;1.50;;;10.60;99.90;;;;;;4928718;29;20125;-83
2022/12/29 01:53:36;;;;;;;2.38;1.58;;;10.60;99.90;;;;;;4928745;29;20557;-83
2022/12/29 01:56:05;;;;;;;2.85;1.63;;;10.60;99.90;;;;;;4944139;29;20056;-83
2022/12/29 01:58:37;;;;;;;1.92;1.38;;;10.70;99.90;;;;;;4932035;29;20506;-84
2022/12/29 02:01:03;;;;;;;2.50;1.77;;;10.60;99.90;;;;;;4917345;29;20036;-84
2022/12/29 02:03:36;;;;;;;1.80;1.40;;;10.70;99.90;;;;;;4911014;29;20074;-84
2022/12/29 02:06:11;;;;;;;1.65;1.50;;;11.20;99.90;;;;;;4925404;29;20074;-83
2022/12/29 02:08:38;;;;;;;1.63;1.40;;;10.70;99.90;;;;;;4930562;29;20174;-84
2022/12/29 02:11:10;;;;;;;4.68;1.67;;;10.70;99.90;;;;;;4915687;29;20071;-84
2022/12/29 02:13:35;;;;;;;1.48;1.25;;;10.70;99.90;;;;;;4930393;29;20558;-83
2022/12/29 02:16:14;;;;;;;3.10;1.52;;;10.70;99.90;;;;;;4916851;29;20044;-84
2022/12/29 02:18:51;;;;;;;1.60;1.40;;;10.70;99.90;;;;;;4942289;29;20496;-84
2022/12/29 02:21:38;;;;;;;3.17;2.05;;;10.80;99.90;;;;;;4917199;29;20058;-84
2022/12/29 02:24:19;;;;;;;2.65;1.60;;;10.70;99.90;;;;;;4918895;29;20044;-84
2022/12/29 02:27:03;;;;;;;3.83;1.30;;;10.70;99.90;;;;;;4921049;29;20040;-84
2022/12/29 02:29:50;;;;;;;2.85;1.27;;;10.80;99.90;;;;;;4953209;28;20060;-85
2022/12/29 02:32:48;;;;;;;3.20;1.50;;;10.70;99.90;;;;;;4935404;29;20931;-83
2022/12/29 02:35:53;;;;;;;1.95;1.10;;;10.70;99.90;;;;;;4932184;29;20491;-83
2022/12/29 02:38:41;;;;;;;2.30;1.13;;;10.80;99.90;;;;;;4935633;29;20546;-84
2022/12/29 02:41:27;;;;;;;2.75;1.30;;;10.70;99.90;;;;;;4919351;29;20043;-83
2022/12/29 02:44:21;;;;;;;3.80;1.20;;;10.70;99.90;;;;;;4919618;29;20086;-84
2022/12/29 02:46:55;;;;;;;2.55;1.30;;;10.70;99.90;;;;;;4920302;29;20054;-84
2022/12/29 02:49:38;;;;;;;1.55;1.00;;;10.60;99.90;;;;;;4920572;29;20044;-83
2022/12/29 02:52:29;;;;;;;3.47;0.85;;;10.70;99.90;;;;;;4936408;29;20122;-85
2022/12/29 02:54:55;;;;;;;1.30;0.80;;;10.70;99.90;;;;;;4936169;29;20451;-83
2022/12/29 02:57:20;;;;;;;1.77;0.60;;;10.70;99.90;;;;;;4930258;29;20051;-83
2022/12/29 02:59:59;;;;;;;3.78;0.50;;;10.60;99.90;;;;;;4923922;29;20502;-85
2022/12/29 03:02:50;;;;;;;1.27;0.70;;;10.60;99.90;;;;;;4921001;29;20047;-83
2022/12/29 03:05:38;;;;;;;1.88;0.70;;;10.60;99.90;;;;;;4935266;29;20133;-84
2022/12/29 03:08:20;;;;;;;1.38;0.50;;;10.60;99.90;;;;;;4927705;29;20664;-86
2022/12/29 03:11:06;;;;;;;0.70;0.60;;;10.60;99.90;;;;;;4935555;29;20043;-84
2022/12/29 03:16:39;;;;;;;1.95;0.60;;;10.60;99.90;;;;;;4929596;29;20426;-84
2022/12/29 03:19:21;;;;;;;1.00;0.40;;;10.60;99.90;;;;;;4919136;29;20040;-84
2022/12/29 03:24:43;;;;;;;0.98;0.47;;;10.70;99.90;;;;;;4931982;29;20084;-83
2022/12/29 03:27:15;;;;;;;2.40;0.47;;;10.60;99.90;;;;;;4934358;29;20098;-84
2022/12/29 03:29:52;;;;;;;1.50;0.30;;;10.60;99.90;;;;;;4935475;29;20480;-84
2022/12/29 03:32:20;;;;;;;0.82;0.30;;;10.50;99.90;;;;;;4934921;29;20044;-84
2022/12/29 03:34:47;;;;;;;1.45;0.52;;;10.50;99.90;;;;;;4929600;29;20035;-84
2022/12/29 03:37:21;;;;;;;1.40;0.50;;;10.50;99.90;;;;;;4918448;29;20044;-84
2022/12/29 03:39:46;;;;;;;1.75;0.70;;;10.60;99.90;;;;;;4915433;29;20099;-84
2022/12/29 03:42:19;;;;;;;1.75;0.60;;;10.50;99.90;;;;;;4936140;29;20043;-83
2022/12/29 03:44:46;;;;;;;1.98;0.50;;;10.50;99.90;;;;;;4931030;29;20044;-84
2022/12/29 03:47:13;;;;;;;2.40;0.90;;;10.50;99.90;;;;;;4919923;29;20046;-83
2022/12/29 03:49:40;;;;;;;1.95;0.50;;;10.50;99.90;;;;;;4921517;29;20047;-84
2022/12/29 03:52:06;;;;;;;1.77;0.50;;;10.60;99.90;;;;;;4919427;29;20059;-85
2022/12/29 03:54:32;;;;;;;2.00;0.70;;;10.50;99.90;;;;;;4931639;29;20046;-84
2022/12/29 03:56:58;;;;;;;2.45;0.60;;;10.60;99.90;;;;;;4933831;29;20038;-85
2022/12/29 03:59:24;;;;;;;8.52;0.60;;;10.60;99.90;;;;;;4916146;29;20118;-84
2022/12/29 04:01:49;;;;;;;4.18;0.60;;;10.60;99.90;;;;;;4929122;29;20036;-84
2022/12/29 04:04:15;;;;;;;3.90;0.95;;;10.60;99.90;;;;;;4934047;29;20547;-84
2022/12/29 04:06:41;;;;;;;4.28;0.70;;;10.50;99.90;;;;;;4920806;29;20042;-83
2022/12/29 04:09:06;;;;;;;4.70;0.70;;;10.60;99.90;;;;;;4935650;29;20055;-85
2022/12/29 04:11:32;;;;;;;2.55;0.57;;;10.50;99.90;;;;;;4916718;29;20067;-84
2022/12/29 04:13:58;;;;;;;2.80;0.52;;;10.50;99.90;;;;;;4919375;29;20071;-84
2022/12/29 04:16:23;;;;;;;3.17;0.65;;;10.50;99.90;;;;;;4929019;29;20036;-83
2022/12/29 04:18:54;;;;;;;3.58;0.40;;;10.40;99.90;;;;;;4934565;29;20048;-83
2022/12/29 04:21:20;;;;;;;2.22;0.30;;;10.50;99.90;;;;;;4919893;29;20040;-84
2022/12/29 04:23:45;;;;;;;2.42;0.40;;;10.40;99.90;;;;;;4933116;29;20043;-84
2022/12/29 04:26:11;;;;;;;2.00;0.30;;;10.40;99.90;;;;;;4932024;29;20040;-84
2022/12/29 04:28:37;;;;;;;3.08;0.40;;;10.40;99.90;;;;;;4914347;29;20052;-84
2022/12/29 04:31:04;;;;;;;4.05;0.40;;;10.20;99.90;;;;;;4918071;29;20051;-82
2022/12/29 04:33:32;;;;;;;2.22;0.35;;;10.20;99.90;;;;;;4935052;29;20043;-84
2022/12/29 04:35:58;;;;;;;4.05;0.45;;;10.30;99.90;;;;;;4908817;29;20084;-83
2022/12/29 04:38:24;;;;;;;3.55;0.30;;;10.10;99.90;;;;;;4933461;29;20083;-85
2022/12/29 04:40:50;;;;;;;2.60;0.55;;;10.10;99.90;;;;;;4934600;29;20043;-84
2022/12/29 04:43:16;;;;;;;2.60;0.47;;;10.00;99.90;;;;;;4917888;29;20039;-84
2022/12/29 04:45:51;;;;;;;6.28;0.90;;;10.00;99.90;;;;;;4934521;29;20490;-84
2022/12/29 04:48:16;;;;;;;4.05;0.32;;;10.00;99.90;;;;;;4918584;29;20130;-84
2022/12/29 04:50:43;;;;;;;5.38;0.77;;;9.90;99.90;;;;;;4919668;29;20134;-84
2022/12/29 04:53:08;;;;;;;4.70;0.60;;;9.90;99.90;;;;;;4933412;29;20082;-84
2022/12/29 04:55:34;;;;;;;6.65;1.52;;;10.10;99.90;;;;;;4935255;29;20461;-85
2022/12/29 04:57:59;;;;;;;3.65;0.57;;;10.00;99.90;;;;;;4935523;29;20043;-83
2022/12/29 05:00:26;;;;;;;5.22;0.68;;;10.00;99.90;;;;;;4930523;29;20042;-83
2022/12/29 05:02:51;;;;;;;4.45;0.55;;;10.10;99.90;;;;;;4934818;29;20043;-84
2022/12/29 05:05:17;;;;;;;5.63;0.65;;;10.20;99.90;;;;;;4913739;29;20039;-84
2022/12/29 05:07:43;;;;;;;8.05;1.63;;;10.20;99.90;;;;;;4920980;29;20490;-84
2022/12/29 05:10:09;;;;;;;5.05;0.88;;;10.20;99.90;;;;;;4918982;29;20067;-84
2022/12/29 05:12:36;;;;;;;5.60;1.00;;;10.10;99.90;;;;;;4931408;29;20063;-83
2022/12/29 05:15:03;;;;;;;7.60;1.63;;;10.10;99.90;;;;;;4912667;29;20042;-84
2022/12/29 05:17:29;;;;;;;12.20;1.52;;;10.10;99.90;;;;;;4929787;29;20098;-84
2022/12/29 05:19:55;;;;;;;10.90;1.85;;;10.00;99.90;;;;;;4918931;29;20106;-84
2022/12/29 05:22:20;;;;;;;6.70;1.52;;;10.00;99.90;;;;;;4932883;29;20048;-84
2022/12/29 05:24:46;;;;;;;8.57;1.35;;;10.00;99.90;;;;;;4914658;29;20051;-84
2022/12/29 05:27:11;;;;;;;5.80;1.55;;;10.00;99.90;;;;;;4932864;29;20048;-86
2022/12/29 05:29:37;;;;;;;4.40;0.63;;;10.00;99.90;;;;;;4916802;29;20050;-85
2022/12/29 05:32:05;;;;;;;10.02;1.42;;;9.90;99.90;;;;;;4915214;29;20047;-83
2022/12/29 05:34:30;;;;;;;7.43;1.10;;;9.90;99.90;;;;;;4922224;29;20483;-83
2022/12/29 05:36:56;;;;;;;8.10;1.02;;;9.80;99.90;;;;;;4919487;29;20126;-83
2022/12/29 05:39:21;;;;;;;4.03;0.50;;;9.80;99.90;;;;;;4927025;29;20028;-85
2022/12/29 05:41:47;;;;;;;4.57;0.68;;;9.80;99.90;;;;;;4927512;29;20044;-84
2022/12/29 05:44:13;;;;;;;6.25;0.73;;;9.80;99.90;;;;;;4934677;29;20465;-83
2022/12/29 05:46:39;;;;;;;7.80;1.00;;;9.70;99.90;;;;;;4933517;29;20094;-83
2022/12/29 05:49:06;;;;;;;7.97;0.90;;;9.70;99.90;;;;;;4932721;29;20064;-84
2022/12/29 05:51:31;;;;;;;3.40;0.68;;;9.70;99.90;;;;;;4932701;29;20042;-83
2022/12/29 05:53:57;;;;;;;4.53;0.70;;;9.70;99.90;;;;;;4923248;29;20036;-84
2022/12/29 05:56:23;;;;;;;6.30;0.88;;;9.60;99.90;;;;;;4934937;29;21264;-84
2022/12/29 05:58:48;;;;;;;6.47;0.65;;;9.60;99.90;;;;;;4936629;29;20043;-84
2022/12/29 06:01:14;;;;;;;4.00;0.50;;;9.70;99.90;;;;;;4915700;29;20043;-83
2022/12/29 06:03:45;;;;;;;6.95;1.00;;;9.60;99.90;;;;;;4917827;29;20036;-84
2022/12/29 06:06:11;;;;;;;7.25;1.42;;;9.70;99.90;;;;;;4911798;29;20036;-84
2022/12/29 06:08:36;;;;;;;4.75;1.13;;;9.70;99.90;;;;;;4922759;29;20126;-85
2022/12/29 06:11:02;;;;;;;7.90;1.23;;;9.70;99.90;;;;;;4934836;29;20055;-84
2022/12/29 06:13:27;;;;;;;6.32;1.00;;;9.70;99.90;;;;;;4919024;29;20044;-84
2022/12/29 06:15:53;;;;;;;9.40;1.08;;;9.70;99.90;;;;;;4917384;29;20048;-84
2022/12/29 06:18:19;;;;;;;4.18;0.93;;;9.70;99.90;;;;;;4920769;29;20126;-85
2022/12/29 06:20:45;;;;;;;5.95;0.88;;;9.70;99.90;;;;;;4937999;29;20228;-84
2022/12/29 06:23:14;;;;;;;10.30;1.30;;;9.70;99.90;;;;;;4921613;29;20121;-84
2022/12/29 06:25:40;;;;;;;6.97;1.25;;;9.70;99.90;;;;;;4922343;29;20054;-83
2022/12/29 06:28:05;;;;;;;8.30;1.38;;;9.80;99.90;;;;;;4937318;29;20039;-84
2022/12/29 06:30:31;;;;;;;9.63;2.53;;;9.80;99.90;;;;;;4922530;29;20054;-84
2022/12/29 06:33:02;;;;;;;10.35;2.15;;;9.80;99.90;;;;;;4910821;29;20072;-83
2022/12/29 06:35:28;;;;;;;7.57;1.00;;;9.80;99.90;;;;;;4921143;29;20028;-84
2022/12/29 06:37:54;;;;;;;9.20;1.00;;;9.80;99.90;;;;;;4918995;29;20060;-85
2022/12/29 06:40:19;;;;;;;5.72;1.00;;;9.80;99.90;;;;;;4916109;29;20044;-84
2022/12/29 06:42:45;;;;;;;10.52;1.27;;;9.80;99.90;;;;;;4931625;29;20039;-83
2022/12/29 06:45:10;;;;;;;7.45;1.30;;;9.70;99.90;;;;;;4951295;29;20028;-84
2022/12/29 06:47:36;;;;;;;7.10;1.13;;;9.80;99.90;;;;;;4931841;29;20134;-84
2022/12/29 06:50:02;;;;;;;6.57;1.33;;;10.00;99.90;;;;;;4919911;29;20046;-82
2022/12/29 06:52:28;;;;;;;7.05;1.13;;;9.80;99.90;;;;;;4909636;29;20471;-85
2022/12/29 06:54:54;;;;;;;8.13;1.20;;;9.80;99.90;;;;;;4919267;29;20122;-84
2022/12/29 06:57:21;;;;;;;7.53;1.17;;;9.70;99.90;;;;;;4934477;29;20039;-83
2022/12/29 06:59:46;;;;;;;7.43;1.27;;;9.80;99.90;;;;;;4939140;29;20202;-83
2022/12/29 07:02:14;;;;;;;7.45;1.25;;;9.80;99.90;;;;;;4936996;29;20032;-83
2022/12/29 07:04:40;;;;;;;8.45;1.13;;;9.90;99.90;;;;;;4937676;29;20046;-83
2022/12/29 07:07:05;;;;;;;7.90;1.27;;;9.80;99.90;;;;;;4918211;29;20036;-84
2022/12/29 07:09:31;;;;;;;7.97;1.40;;;9.80;99.90;;;;;;4938674;29;20519;-84
2022/12/29 07:11:57;;;;;;;12.23;1.90;;;9.70;99.90;;;;;;4934783;29;20047;-85
2022/12/29 07:14:22;;;;;;;6.97;1.30;;;9.70;99.90;;;;;;4915252;29;20044;-84
2022/12/29 07:27:19;;;;;;;9.73;1.40;;;9.70;99.90;;;;;;4856698;29;20393;-83
2022/12/29 07:29:52;;;;;;;13.05;2.38;;;9.90;99.90;;;;;;4841478;29;20034;-85
2022/12/29 07:32:28;;;;;;;13.65;1.92;;;9.70;99.90;;;;;;4852396;29;20086;-85
2022/12/29 07:35:11;;;;;;;6.40;1.60;;;9.70;99.90;;;;;;4842163;29;20084;-83
2022/12/29 07:37:36;;;;;;;10.43;1.98;;;9.70;99.90;;;;;;4865901;29;20076;-83
2022/12/29 07:40:03;;;;;;;10.68;2.08;;;9.70;99.90;;;;;;4905157;29;20058;-82
2022/12/29 07:42:29;;;;;;;12.90;2.95;;;9.70;99.90;;;;;;4934139;29;20031;-84
2022/12/29 07:44:54;;;;;;;13.57;1.60;;;9.60;99.90;;;;;;4911757;29;20554;-83
2022/12/29 07:47:27;;;;;;;10.52;1.70;;;9.70;99.90;;;;;;4919094;29;20053;-86
2022/12/29 07:50:03;;;;;;;8.40;1.45;;;9.60;99.90;;;;;;4932304;29;20036;-84
2022/12/29 07:52:28;;;;;;;10.23;2.35;;;9.60;99.90;;;;;;4912479;29;20387;-84
2022/12/29 07:54:54;;;;;;;9.70;1.85;;;9.90;99.90;;;;;;4930042;29;20159;-85
2022/12/29 07:57:23;;;;;;;11.20;1.08;;;9.60;99.90;;;;;;4934321;29;20091;-84
2022/12/29 07:59:52;;;;;;;11.52;1.95;;;9.60;99.90;;;;;;4927882;29;20036;-83
2022/12/29 08:02:18;;;;;;;14.45;1.90;;;9.60;99.90;;;;;;4925159;29;20067;-82
2022/12/29 08:04:44;;;;;;;9.98;1.40;;;9.60;99.90;;;;;;4911206;29;20075;-84
2022/12/29 08:07:09;;;;;;;13.05;2.20;;;9.60;99.90;;;;;;4925691;29;20130;-84
2022/12/29 08:09:36;;;;;;;14.40;1.80;;;9.60;99.90;;;;;;4914392;29;20126;-82
2022/12/29 08:12:10;;;;;;;11.00;2.35;;;9.60;99.90;;;;;;4917816;29;20048;-86
2022/12/29 08:15:20;;;;;;;8.88;1.95;;;9.80;99.90;;;;;;4911235;29;20088;-86
2022/12/29 08:18:02;;;;;;;15.85;2.53;;;9.60;99.90;;;;;;4915295;29;20107;-83
2022/12/29 08:21:28;;;;;;;19.65;3.03;;;9.60;99.90;;;;;;4917637;29;20040;-87
2022/12/29 08:23:54;;;;;;;13.40;2.00;;;9.60;99.90;;;;;;4921476;29;20090;-84
2022/12/29 08:26:20;;;;;;;12.63;2.03;;;9.60;99.90;;;;;;4916384;29;20079;-86
2022/12/29 08:28:45;;;;;;;18.70;3.13;;;9.60;99.90;;;;;;4926791;28;20054;-83
2022/12/29 08:31:12;;;;;;;18.33;2.15;;;9.70;99.90;;;;;;4921488;28;20043;-83
2022/12/29 08:33:46;;;;;;;19.98;3.25;;;9.70;99.90;;;;;;4948311;28;20118;-83
2022/12/29 08:36:16;;;;;;;16.08;2.30;;;9.70;99.90;;;;;;4949067;28;20039;-85
2022/12/29 08:38:42;;;;;;;15.27;2.60;;;9.60;99.90;;;;;;4934575;29;20110;-85
2022/12/29 08:41:09;;;;;;;15.80;2.72;;;9.60;99.90;;;;;;4934023;29;20648;-85
2022/12/29 08:43:34;;;;;;;15.70;2.67;;;9.70;99.90;;;;;;4950653;28;20050;-83
2022/12/29 08:46:05;;;;;;;13.52;2.88;;;9.70;99.90;;;;;;4938976;29;20039;-85
2022/12/29 08:48:37;;;;;;;16.27;2.60;;;9.70;99.90;;;;;;4952487;28;20106;-81
2022/12/29 08:51:03;;;;;;;14.68;2.40;;;9.50;99.90;;;;;;4951775;29;20118;-83
2022/12/29 08:53:50;;;;;;;13.20;2.10;;;9.80;99.90;;;;;;4946156;28;20036;-85
2022/12/29 08:56:17;;;;;;;13.70;2.90;;;9.80;99.90;;;;;;4936797;29;20047;-82
2022/12/29 08:58:42;;;;;;;10.93;2.30;;;9.80;99.90;;;;;;4932495;29;20042;-83
2022/12/29 09:01:15;;;;;;;10.70;1.15;;;9.90;99.90;;;;;;4936787;29;20035;-83
2022/12/29 09:03:42;;;;;;;11.77;1.63;;;9.80;99.90;;;;;;4948968;29;20403;-85
2022/12/29 09:06:08;;;;;;;14.10;2.30;;;9.80;99.90;;;;;;4946196;29;20043;-82
2022/12/29 09:08:34;;;;;;;9.07;1.63;;;9.80;99.90;;;;;;4930061;28;20067;-81
2022/12/29 09:11:15;;;;;;;11.95;2.33;;;10.20;99.90;;;;;;4925622;29;20074;-84
2022/12/29 09:13:41;;;;;;;9.90;2.22;;;9.70;99.90;;;;;;4931466;29;20040;-84
2022/12/29 09:16:06;;;;;;;14.35;2.08;;;9.70;99.90;;;;;;4925069;29;20047;-83
2022/12/29 09:18:33;;;;;;;12.65;1.90;;;9.70;99.90;;;;;;4942415;28;20050;-83
2022/12/29 09:21:00;;;;;;;18.67;2.65;;;9.70;99.90;;;;;;4944979;29;20042;-83
2022/12/29 09:23:29;;;;;;;15.80;2.83;;;9.70;99.90;;;;;;4929213;28;20727;-83
2022/12/29 09:25:58;;;;;;;18.85;2.85;;;9.70;99.90;;;;;;4930175;29;20494;-84
2022/12/29 09:28:23;;;;;;;9.40;1.77;;;9.80;99.90;;;;;;4929700;29;20046;-83
2022/12/29 09:30:54;;;;;;;10.25;2.13;;;9.70;99.90;;;;;;4934096;28;20066;-84
2022/12/29 09:33:22;;;;;;;10.98;2.00;;;9.70;99.90;;;;;;4943073;29;20043;-84
2022/12/29 09:36:03;;;;;;;11.52;2.60;;;9.60;99.90;;;;;;4892797;28;20063;-84
2022/12/29 09:38:29;;;;;;;9.02;2.13;;;9.80;99.90;;;;;;4910324;29;20044;-84
2022/12/29 09:41:01;;;;;;;11.85;2.40;;;9.70;99.90;;;;;;4928571;29;20487;-83
2022/12/29 09:43:41;;;;;;;13.18;2.15;;;9.80;99.90;;;;;;4911698;29;20043;-83
2022/12/29 09:46:27;;;;;;;12.93;2.25;;;9.70;99.90;;;;;;4925237;29;20054;-83
2022/12/29 09:49:23;;;;;;;13.80;3.15;;;9.80;99.90;;;;;;4925250;29;20072;-83
2022/12/29 09:51:53;;;;;;;10.65;1.55;;;9.70;99.90;;;;;;4911528;29;20056;-83
2022/12/29 09:55:12;;;;;;;12.07;1.70;;;9.70;99.90;;;;;;4930844;29;20036;-84
2022/12/29 09:58:05;;;;;;;12.40;2.67;;;9.70;99.90;;;;;;4865866;29;22492;-84
2022/12/29 10:00:40;;;;;;;12.90;1.92;;;9.60;99.90;;;;;;4925205;29;20087;-84
2022/12/29 10:03:14;;;;;;;12.67;2.63;;;9.50;99.90;;;;;;4927414;29;20102;-84
2022/12/29 10:06:01;;;;;;;14.27;2.72;;;9.40;99.90;;;;;;4926987;29;20046;-83
2022/12/29 10:08:48;;;;;;;16.88;3.00;;;9.30;99.90;;;;;;4927306;29;20058;-84
2022/12/29 10:11:31;;;;;;;12.80;2.15;;;9.30;99.90;;;;;;4923640;29;20048;-84
2022/12/29 10:14:08;;;;;;;10.40;1.95;;;9.30;99.90;;;;;;4905092;29;20066;-83
2022/12/29 10:17:00;;;;;;;13.43;2.08;;;9.30;99.90;;;;;;4942348;28;20056;-84
2022/12/29 10:20:13;;;;;;;18.85;3.05;;;9.20;99.90;;;;;;4937897;28;20044;-83
2022/12/29 10:23:16;;;;;;;14.45;2.00;;;9.20;99.90;;;;;;4924526;29;20141;-83
2022/12/29 10:25:43;;;;;;;15.10;2.47;;;9.10;99.90;;;;;;4926170;29;20143;-83
2022/12/29 10:28:23;;;;;;;17.88;3.03;;;9.50;99.90;;;;;;4925632;29;20111;-83
2022/12/29 10:30:52;;;;;;;13.60;2.08;;;9.10;99.90;;;;;;4927770;29;20201;-83
2022/12/29 10:33:33;;;;;;;8.65;2.00;;;9.10;99.90;;;;;;4927742;29;20043;-83
2022/12/29 10:35:59;;;;;;;12.75;2.42;;;9.20;99.90;;;;;;4927695;29;20040;-83
2022/12/29 10:38:30;;;;;;;9.45;1.63;;;9.10;99.90;;;;;;4926748;29;20035;-82
2022/12/29 10:41:11;;;;;;;10.38;1.67;;;9.20;99.90;;;;;;4908837;29;20052;-83
2022/12/29 10:43:57;;;;;;;9.18;1.25;;;9.20;99.90;;;;;;4913177;29;20136;-82
2022/12/29 10:46:35;;;;;;;10.93;2.63;;;9.20;99.90;;;;;;4908370;29;20040;-82
2022/12/29 10:49:01;;;;;;;9.07;1.65;;;9.20;99.90;;;;;;4927473;29;20036;-83
2022/12/29 10:51:39;;;;;;;8.98;1.60;;;9.20;99.90;;;;;;4924727;29;20455;-82
2022/12/29 10:54:28;;;;;;;9.07;1.92;;;9.20;99.90;;;;;;4925112;29;20050;-81
2022/12/29 10:57:03;;;;;;;9.70;1.75;;;9.20;99.90;;;;;;4926245;29;20054;-82
2022/12/29 10:59:35;;;;;;;11.38;1.33;;;9.20;99.90;;;;;;4911899;29;20044;-82
2022/12/29 11:02:10;;;;;;;11.70;1.67;;;9.20;99.90;;;;;;4919306;29;20043;-83
2022/12/29 11:05:26;;;;;;;10.60;1.58;;;9.20;99.90;;;;;;4911023;29;20200;-84
2022/12/29 11:07:59;;;;;;;11.25;2.33;;;9.20;99.90;;;;;;4930478;29;20848;-83
2022/12/29 11:10:40;;;;;;;14.05;1.73;;;9.30;99.90;;;;;;4922951;29;20063;-83
2022/12/29 11:13:16;;;;;;;9.38;2.08;;;9.30;99.90;;;;;;4908001;29;20099;-83
2022/12/29 11:15:50;;;;;;;13.85;2.33;;;9.30;99.90;;;;;;4923546;29;20056;-82
2022/12/29 11:18:37;;;;;;;13.32;1.95;;;9.30;99.90;;;;;;4937580;28;20138;-84
2022/12/29 11:21:06;;;;;;;12.73;2.30;;;9.40;99.90;;;;;;4931339;29;20083;-82
2022/12/29 11:23:42;;;;;;;5.68;0.98;;;9.40;99.90;;;;;;4911592;29;20040;-81
2022/12/29 11:26:21;;;;;;;11.23;2.08;;;9.50;99.90;;;;;;4912406;29;20106;-83
2022/12/29 11:29:05;;;;;;;10.30;1.35;;;9.50;99.90;;;;;;4919435;29;20870;-83
2022/12/29 11:31:31;;;;;;;12.60;2.80;;;9.60;99.90;;;;;;4925383;29;20407;-82
2022/12/29 11:33:56;;;;;;;10.32;2.58;;;9.60;99.90;;;;;;4924922;29;20039;-84
2022/12/29 11:36:29;;;;;;;12.05;2.42;;;9.60;99.90;;;;;;4920817;29;20133;-83
2022/12/29 11:38:55;;;;;;;14.60;2.10;;;9.60;99.90;;;;;;4922338;29;20140;-83
2022/12/29 11:41:30;;;;;;;15.70;2.67;;;9.50;99.90;;;;;;4921629;29;20350;-82
2022/12/29 11:44:22;;;;;;;13.03;2.30;;;9.50;99.90;;;;;;4922812;29;20124;-81
2022/12/29 11:46:58;;;;;;;13.82;2.17;;;9.40;99.90;;;;;;4915580;29;20056;-82
2022/12/29 11:49:27;;;;;;;13.05;2.67;;;9.40;99.90;;;;;;4926668;29;20039;-81
2022/12/29 11:51:56;;;;;;;13.15;3.15;;;9.40;99.90;;;;;;4922699;29;20052;-84
2022/12/29 11:54:29;;;;;;;19.80;3.40;;;9.40;99.90;;;;;;4924027;29;20529;-82
2022/12/29 11:56:57;;;;;;;21.20;2.85;;;9.50;99.90;;;;;;4916486;29;20035;-82
2022/12/29 11:59:33;;;;;;;16.80;3.25;;;9.50;99.90;;;;;;4924927;29;20123;-82
2022/12/29 12:02:03;;;;;;;16.55;4.03;;;9.50;99.90;;;;;;4925739;29;20047;-81
2022/12/29 12:04:34;;;;;;;20.83;3.58;;;9.50;99.90;;;;;;4924258;29;20044;-81
2022/12/29 12:07:08;;;;;;;15.55;2.63;;;9.60;99.90;;;;;;4914132;29;20046;-82
2022/12/29 12:09:54;;;;;;;16.20;2.97;;;9.70;99.90;;;;;;4909395;29;20051;-81
2022/12/29 12:12:44;;;;;;;14.15;3.00;;;9.80;99.90;;;;;;4908561;29;20042;-81
2022/12/29 12:15:19;;;;;;;15.05;3.95;;;10.00;99.90;;;;;;4911522;29;20051;-81
2022/12/29 12:17:55;;;;;;;16.02;3.00;;;10.10;99.90;;;;;;4914441;29;20040;-83
2022/12/29 12:20:48;;;;;;;16.10;3.35;;;10.20;99.90;;;;;;4923006;29;20035;-83
2022/12/29 12:23:38;;;;;;;21.35;3.47;;;10.20;99.90;;;;;;4917003;29;20071;-83
2022/12/29 12:26:27;;;;;;;17.55;3.72;;;10.30;99.90;;;;;;4928901;29;20419;-83
2022/12/29 12:29:00;;;;;;;18.25;3.53;;;9.80;99.90;;;;;;4926093;29;20043;-83
2022/12/29 12:31:59;;;;;;;17.25;3.67;;;10.30;99.90;;;;;;4906979;29;20047;-81
2022/12/29 12:34:43;;;;;;;18.00;3.22;;;10.20;99.90;;;;;;4910959;29;20151;-83
2022/12/29 12:37:37;;;;;;;22.33;4.90;;;10.00;99.90;;;;;;4929842;29;20046;-83
2022/12/29 12:40:24;;;;;;;19.40;2.92;;;9.90;99.90;;;;;;4924798;29;20040;-84
2022/12/29 12:43:18;;;;;;;22.42;3.67;;;9.80;99.90;;;;;;4928263;29;20047;-82
2022/12/29 12:45:52;;;;;;;23.35;4.68;;;9.80;99.90;;;;;;4906892;29;20395;-83
2022/12/29 12:48:44;;;;;;;17.55;3.22;;;9.90;99.90;;;;;;4911489;29;20047;-82
2022/12/29 12:51:33;;;;;;;27.52;4.65;;;9.90;99.90;;;;;;4923838;29;20035;-84
2022/12/29 12:54:46;;;;;;;21.15;3.90;;;9.90;99.90;;;;;;4926535;29;20087;-87
2022/12/29 12:58:05;;;;;;;22.98;4.93;;;9.90;99.90;;;;;;4920538;29;20422;-84
2022/12/29 13:00:54;;;;;;;;;;;9.80;99.90;;;;;;4918481;29;20069;-82
2022/12/29 13:03:57;;;;;;;22.38;4.55;;;9.80;99.90;;;;;;4890526;29;19926;-83
2022/12/29 13:06:49;;;;;;;21.88;3.70;;;9.90;99.90;;;;;;4908066;29;20174;-85
2022/12/29 13:09:43;;;;;;;21.80;3.50;;;9.90;99.90;;;;;;4905100;29;20083;-82
2022/12/29 13:12:48;;;;;;;377.27;36.15;;;10.00;99.90;;;;;;4912439;29;20074;-84
2022/12/29 13:15:20;;;;;;;32.58;3.88;;;10.00;99.90;;;;;;4904175;29;20047;-82
2022/12/29 13:18:24;;;;;;;102.72;9.63;;;10.00;99.90;;;;;;4905166;29;20040;-82
2022/12/29 13:21:21;;;;;;;189.43;18.50;;;10.00;99.90;;;;;;4925851;29;20050;-82
2022/12/29 13:24:15;;;;;;;1103.50;99.43;;;10.00;99.90;;;;;;4911827;29;20052;-81
2022/12/29 13:26:47;;;;;;;156.15;12.27;;;10.00;99.90;;;;;;4925109;29;20090;-83
2022/12/29 13:29:16;;;;;;;15.18;2.40;;;9.90;99.90;;;;;;4925199;29;20660;-84
2022/12/29 13:32:09;;;;;;;25.65;2.70;;;9.90;99.90;;;;;;4924394;29;20430;-82
2022/12/29 13:34:40;;;;;;;19.17;3.20;;;9.90;99.90;;;;;;4905421;29;20403;-83
2022/12/29 13:37:16;;;;;;;22.48;3.33;;;9.70;99.90;;;;;;4927533;29;20043;-82
2022/12/29 13:39:49;;;;;;;12.18;2.22;;;9.70;99.90;;;;;;4927794;29;20751;-82
2022/12/29 13:42:18;;;;;;;22.13;2.45;;;9.80;99.90;;;;;;4905988;29;20050;-83
2022/12/29 13:45:00;;;;;;;20.30;3.17;;;9.80;99.90;;;;;;4901035;29;20040;-85
2022/12/29 13:47:54;;;;;;;19.10;3.00;;;9.80;99.90;;;;;;4914115;29;20056;-85
2022/12/29 13:50:25;;;;;;;16.35;2.50;;;9.70;99.90;;;;;;4908011;29;20039;-84
2022/12/29 13:53:34;;;;;;;14.15;2.33;;;9.70;99.90;;;;;;4906066;29;20050;-86
2022/12/29 13:56:31;;;;;;;469.13;42.50;;;9.60;99.90;;;;;;4930703;29;20038;-83
2022/12/29 13:59:06;;;;;;;218.32;21.50;;;9.70;99.90;;;;;;4921910;29;20395;-83
2022/12/29 14:01:42;;;;;;;;;;;9.60;99.90;;;;;;4912061;29;20162;-83
2022/12/29 14:04:23;;;;;;;33.57;3.17;;;9.50;99.90;;;;;;4924802;29;20009;-82
2022/12/29 14:07:21;;;;;;;15.93;1.95;;;9.50;99.90;;;;;;4922517;29;20047;-83
2022/12/29 14:09:51;;;;;;;17.77;3.15;;;9.50;99.90;;;;;;4884976;29;20190;-82